Atlantic Island — C4VM2 — position and weather

sailwx.info

Track history (hours):
 
Tides and Currents Weather Stations Pressure Air Temp Water Temp Dewpoint Dewpoint Depression Visibility Wind Speed Wind Dir Waves Ship Positions

Atlantic Island

Last reported at 2014-Aug-22 07:19 UTC. Time now 2014-Aug-22 09:58 UTC.
Position N 36°14' W 007°44'.

Length 95 m; draft 5.2 m.

Type: Cargo ship. MMSI: 210754000.

Date/timePositionNaut miles runAvg speedWind from/ knotsBaromVisibWave heightAir tempDewpointWater temp
2014-Aug-22 07:19N 36°14' W 007°44'139 7.6
2014-Aug-21 13:04N 38°18' W 009°02'510.4
2014-Aug-21 12:33N 38°23' W 009°00'9 9.3
2014-Aug-21 11:33N 38°31' W 008°53'2 2.3
2014-Aug-21 10:30N 38°30' W 008°51'0 0.0
2014-Aug-21 09:32N 38°30' W 008°51'0 0.0
2014-Aug-21 08:33N 38°30' W 008°51'0 0.0
2014-Aug-21 07:33N 38°30' W 008°51'0 0.0
2014-Aug-21 06:33N 38°30' W 008°51'0 0.0
2014-Aug-21 05:33N 38°30' W 008°51'0 0.0
2014-Aug-21 04:33N 38°30' W 008°51'0 0.0
2014-Aug-21 03:33N 38°30' W 008°51'0 0.0
2014-Aug-21 02:33N 38°30' W 008°51'0 0.0
2014-Aug-21 01:33N 38°30' W 008°51'0 0.0
2014-Aug-21 00:33N 38°30' W 008°51'0 0.0
2014-Aug-20 23:33N 38°30' W 008°51'0 0.0
2014-Aug-20 22:33N 38°30' W 008°51'0 0.0
2014-Aug-20 21:33N 38°30' W 008°51'0 0.0
2014-Aug-20 20:33N 38°30' W 008°51'0 0.0
2014-Aug-20 19:33N 38°30' W 008°51'0 0.0
2014-Aug-20 18:33N 38°30' W 008°51'0 0.0
2014-Aug-20 17:33N 38°30' W 008°51'0 0.0
2014-Aug-20 16:33N 38°30' W 008°51'0 0.0
2014-Aug-20 15:26N 38°30' W 008°51'0 0.0
2014-Aug-20 14:33N 38°30' W 008°51'0 0.0
2014-Aug-20 13:32N 38°30' W 008°51'0 0.0
2014-Aug-20 12:33N 38°30' W 008°51'0 0.0
2014-Aug-20 11:33N 38°30' W 008°51'0 0.0
2014-Aug-20 10:33N 38°30' W 008°51'0 0.0
2014-Aug-20 09:33N 38°30' W 008°51'5 5.4
2014-Aug-20 08:32N 38°28' W 008°57'7 7.1
2014-Aug-20 07:33N 38°22' W 009°01'9 8.5
2014-Aug-20 06:32N 38°13' W 009°02'86 9.6
2014-Aug-19 21:33N 36°48' W 009°14'10 9.7
2014-Aug-19 20:33N 36°43' W 009°03'10 9.8
2014-Aug-19 19:33N 36°42' W 008°51'1010.5
2014-Aug-19 18:33N 36°44' W 008°38'1010.1
2014-Aug-19 17:33N 36°46' W 008°26'10 9.8
2014-Aug-19 16:33N 36°47' W 008°14'10 9.6
2014-Aug-19 15:33N 36°48' W 008°02'10 9.8
2014-Aug-19 14:32N 36°50' W 007°50'47 7.6
2014-Aug-19 08:22N 36°54' W 006°51'32 9.8
2014-Aug-19 05:04N 36°28' W 006°27'  
2014-Aug-13 15:30N 36°53' W 001°33'9 9.5
2014-Aug-13 14:33N 36°59' W 001°25'10 9.8
2014-Aug-13 13:33N 37°05' W 001°15'1410.1
2014-Aug-13 12:07N 37°15' W 001°02'1610.2
2014-Aug-13 10:33N 37°25' W 000°47'1010.3
2014-Aug-13 09:33N 37°31' W 000°36'10 9.9
2014-Aug-13 08:32N 37°40' W 000°29'11 9.9
2014-Aug-13 07:27N 37°49' W 000°22'10 9.8
2014-Aug-13 06:28N 37°57' W 000°15'2110.0
2014-Aug-13 04:23N 38°14' W 000°01'8 9.8
2014-Aug-13 03:33N 38°21' E 000°05'30 9.3
2014-Aug-13 00:20N 38°48' E 000°20'1110.1
2014-Aug-12 23:16N 38°58' E 000°14'10 9.2
2014-Aug-12 22:11N 39°07' E 000°08'6 9.3
2014-Aug-12 21:33N 39°12' E 000°05'22 9.4
2014-Aug-12 19:15N 39°31' W 000°08'5 6.5
2014-Aug-12 18:32N 39°35' W 000°11'4 0.7
2014-Aug-12 12:24N 39°39' W 000°13'0 0.0
2014-Aug-12 11:12N 39°39' W 000°13'0 0.0
2014-Aug-12 10:06N 39°39' W 000°13'  
Track history (hours):
 
Tides and Currents Weather Stations Pressure Air Temp Water Temp Dewpoint Dewpoint Depression Visibility Wind Speed Wind Dir Waves Ship Positions

Atlantic Island

Last reported at 2014-Aug-22 07:19 UTC. Time now 2014-Aug-22 09:58 UTC.
Position N 36°14' W 007°44'.

Length 95 m; draft 5.2 m.

Type: Cargo ship. MMSI: 210754000.

Date/timePositionNaut miles runAvg speedWind from/ knotsBaromVisibWave heightAir tempDewpointWater temp
2014-Aug-22 07:19N 36°14' W 007°44'139 7.6
2014-Aug-21 13:04N 38°18' W 009°02'510.4
2014-Aug-21 12:33N 38°23' W 009°00'9 9.3
2014-Aug-21 11:33N 38°31' W 008°53'2 2.3
2014-Aug-21 10:30N 38°30' W 008°51'0 0.0
2014-Aug-21 09:32N 38°30' W 008°51'0 0.0
2014-Aug-21 08:33N 38°30' W 008°51'0 0.0
2014-Aug-21 07:33N 38°30' W 008°51'0 0.0
2014-Aug-21 06:33N 38°30' W 008°51'0 0.0
2014-Aug-21 05:33N 38°30' W 008°51'0 0.0
2014-Aug-21 04:33N 38°30' W 008°51'0 0.0
2014-Aug-21 03:33N 38°30' W 008°51'0 0.0
2014-Aug-21 02:33N 38°30' W 008°51'0 0.0
2014-Aug-21 01:33N 38°30' W 008°51'0 0.0
2014-Aug-21 00:33N 38°30' W 008°51'0 0.0
2014-Aug-20 23:33N 38°30' W 008°51'0 0.0
2014-Aug-20 22:33N 38°30' W 008°51'0 0.0
2014-Aug-20 21:33N 38°30' W 008°51'0 0.0
2014-Aug-20 20:33N 38°30' W 008°51'0 0.0
2014-Aug-20 19:33N 38°30' W 008°51'0 0.0
2014-Aug-20 18:33N 38°30' W 008°51'0 0.0
2014-Aug-20 17:33N 38°30' W 008°51'0 0.0
2014-Aug-20 16:33N 38°30' W 008°51'0 0.0
2014-Aug-20 15:26N 38°30' W 008°51'0 0.0
2014-Aug-20 14:33N 38°30' W 008°51'0 0.0
2014-Aug-20 13:32N 38°30' W 008°51'0 0.0
2014-Aug-20 12:33N 38°30' W 008°51'0 0.0
2014-Aug-20 11:33N 38°30' W 008°51'0 0.0
2014-Aug-20 10:33N 38°30' W 008°51'0 0.0
2014-Aug-20 09:33N 38°30' W 008°51'5 5.4
2014-Aug-20 08:32N 38°28' W 008°57'7 7.1
2014-Aug-20 07:33N 38°22' W 009°01'9 8.5
2014-Aug-20 06:32N 38°13' W 009°02'86 9.6
2014-Aug-19 21:33N 36°48' W 009°14'10 9.7
2014-Aug-19 20:33N 36°43' W 009°03'10 9.8
2014-Aug-19 19:33N 36°42' W 008°51'1010.5
2014-Aug-19 18:33N 36°44' W 008°38'1010.1
2014-Aug-19 17:33N 36°46' W 008°26'10 9.8
2014-Aug-19 16:33N 36°47' W 008°14'10 9.6
2014-Aug-19 15:33N 36°48' W 008°02'10 9.8
2014-Aug-19 14:32N 36°50' W 007°50'47 7.6
2014-Aug-19 08:22N 36°54' W 006°51'32 9.8
2014-Aug-19 05:04N 36°28' W 006°27'  
2014-Aug-13 15:30N 36°53' W 001°33'9 9.5
2014-Aug-13 14:33N 36°59' W 001°25'10 9.8
2014-Aug-13 13:33N 37°05' W 001°15'1410.1
2014-Aug-13 12:07N 37°15' W 001°02'1610.2
2014-Aug-13 10:33N 37°25' W 000°47'1010.3
2014-Aug-13 09:33N 37°31' W 000°36'10 9.9
2014-Aug-13 08:32N 37°40' W 000°29'11 9.9
2014-Aug-13 07:27N 37°49' W 000°22'10 9.8
2014-Aug-13 06:28N 37°57' W 000°15'2110.0
2014-Aug-13 04:23N 38°14' W 000°01'8 9.8
2014-Aug-13 03:33N 38°21' E 000°05'30 9.3
2014-Aug-13 00:20N 38°48' E 000°20'1110.1
2014-Aug-12 23:16N 38°58' E 000°14'10 9.2
2014-Aug-12 22:11N 39°07' E 000°08'6 9.3
2014-Aug-12 21:33N 39°12' E 000°05'22 9.4
2014-Aug-12 19:15N 39°31' W 000°08'5 6.5
2014-Aug-12 18:32N 39°35' W 000°11'4 0.7
2014-Aug-12 12:24N 39°39' W 000°13'0 0.0
2014-Aug-12 11:12N 39°39' W 000°13'0 0.0
2014-Aug-12 10:06N 39°39' W 000°13'  

Dump ship's entire track history